Terminal Aerodrome Forecast
Issued by NWS

Home | Current Version | Previous Version | Text Only | Print | Product List | Glossary On
Versions: 1 2 3 4 5 6 7 8 9 10 11 12 13 14
000
FTUS45 KFGZ 110500
TAFPRC
TAF
KPRC 110536Z 1106/1206 20006KT P6SM SCT150
     FM111800 24009KT P6SM VCTS SCT090CB
      TEMPO 1118/1121 VRB10G20KT P6SM -TSRA BKN090CB
     FM120200 20006KT P6SM FEW150=

USA.gov is the U.S. government's official web portal to all federal, state and local government web resources and services.